KLBE

Arnold Palmer Regional Airport

Latrobe, Pennsylvania, USA
METAR KLBE 191845Z 25006KT 10SM SKC 15/02 A3008
Observed Flight Rules
Oct-19 @ 18:45 UTC (an hour ago) Visual Flight Rules
Wind Visibility Clouds
250° at 6 knots 10 miles
  • Clear skies
Temperatures Readings
Current 15°C / 59°F
Dewpoint 2°C / 36°F
Humidity 42%
Altimeter 30.08" Hg
Pressure 1019 hPa
Elevation 361
METAR KLBE 191845Z 25006KT 10SM SKC 15/02 A3008
Observed Flight Rules
Oct-19 @ 18:45 UTC
(an hour ago)
VFR
Wind Visibility
250° at 6 knots 10 miles
Clouds
  • Clear skies
Temperature Dewpoint
15°C / 59°F 2°C / 36°F
Humidity Altimeter Pressure
42% 30.08" Hg 1019 hPa